Time;durP1;ratioP1;P1;durP2;ratioP2;P2;SDS_P1;SDS_P2;PMS_P1;PMS_P2;Temp;Humidity;BMP_temperature;BMP_pressure;BME280_temperature;BME280_humidity;BME280_pressure;Samples;Min_cycle;Max_cycle;Signal;HPM_P1;HPM_P2
2023/05/27 00:01:32;;;;;;;10.00;2.60;;;8.20;99.90;;;;;;5052601;28;20130;-83
2023/05/27 00:03:59;;;;;;;24.45;3.50;;;8.20;99.90;;;;;;5071494;28;20040;-83
2023/05/27 00:06:26;;;;;;;13.93;3.05;;;8.20;99.90;;;;;;5089188;28;20101;-83
2023/05/27 00:08:52;;;;;;;13.75;3.13;;;8.20;99.90;;;;;;5089230;28;20052;-83
2023/05/27 00:11:19;;;;;;;10.20;2.97;;;8.20;99.90;;;;;;5072320;28;20186;-83
2023/05/27 00:13:46;;;;;;;15.35;3.15;;;8.10;99.90;;;;;;5072570;28;20048;-83
2023/05/27 00:16:13;;;;;;;12.00;3.30;;;8.20;99.90;;;;;;5072535;28;20127;-83
2023/05/27 00:18:40;;;;;;;12.27;2.63;;;8.20;99.90;;;;;;5072314;28;20036;-83
2023/05/27 00:21:07;;;;;;;10.43;2.60;;;8.10;99.90;;;;;;5072643;28;20065;-83
2023/05/27 00:23:34;;;;;;;14.48;3.17;;;8.10;99.90;;;;;;5089211;28;20136;-83
2023/05/27 00:26:01;;;;;;;7.30;2.45;;;8.10;99.90;;;;;;5072790;28;20043;-83
2023/05/27 00:28:30;;;;;;;13.35;3.28;;;8.00;99.90;;;;;;5072493;28;20041;-83
2023/05/27 00:30:58;;;;;;;15.38;3.20;;;8.00;99.90;;;;;;5071177;28;20037;-83
2023/05/27 00:33:24;;;;;;;10.25;2.35;;;7.90;99.90;;;;;;5088595;28;20042;-83
2023/05/27 00:35:51;;;;;;;14.38;2.92;;;8.00;99.90;;;;;;5072180;28;20098;-83
2023/05/27 00:38:18;;;;;;;12.43;2.70;;;7.90;99.90;;;;;;5072134;28;20524;-83
2023/05/27 00:40:45;;;;;;;9.65;2.85;;;7.50;99.90;;;;;;5055957;28;20039;-83
2023/05/27 00:43:12;;;;;;;9.80;2.28;;;7.90;99.90;;;;;;5105572;28;20033;-83
2023/05/27 00:45:39;;;;;;;12.82;2.80;;;7.90;99.90;;;;;;5055713;28;20503;-83
2023/05/27 00:48:06;;;;;;;16.75;3.53;;;7.90;99.90;;;;;;5088749;28;20106;-83
2023/05/27 00:50:32;;;;;;;11.70;2.83;;;7.80;99.90;;;;;;5088518;28;20036;-83
2023/05/27 00:52:59;;;;;;;9.40;2.47;;;7.90;99.90;;;;;;5055842;28;20091;-83
2023/05/27 00:55:26;;;;;;;12.38;3.15;;;7.90;99.90;;;;;;5072028;28;20040;-83
2023/05/27 00:57:54;;;;;;;17.58;3.05;;;7.80;99.90;;;;;;5072283;28;20044;-83
2023/05/27 01:00:22;;;;;;;14.80;3.17;;;7.80;99.90;;;;;;5072078;28;20404;-83
2023/05/27 01:02:49;;;;;;;11.32;2.90;;;7.80;99.90;;;;;;5072199;28;20037;-83
2023/05/27 01:05:18;;;;;;;9.13;2.63;;;7.40;99.90;;;;;;5072208;28;20036;-83
2023/05/27 01:08:05;;;;;;;10.63;2.78;;;7.80;99.90;;;;;;5088649;28;20048;-83
2023/05/27 01:10:42;;;;;;;8.40;2.55;;;7.80;99.90;;;;;;5091836;28;20105;-83
2023/05/27 01:13:44;;;;;;;13.73;2.80;;;7.70;99.90;;;;;;5080610;28;20125;-83
2023/05/27 01:16:13;;;;;;;10.43;2.63;;;7.80;99.90;;;;;;5072232;28;20041;-83
2023/05/27 01:18:44;;;;;;;13.77;2.60;;;7.80;99.90;;;;;;5039415;28;20037;-83
2023/05/27 01:21:13;;;;;;;11.48;2.40;;;7.70;99.90;;;;;;5056535;28;20154;-83
2023/05/27 01:23:46;;;;;;;10.27;2.45;;;7.80;99.90;;;;;;5071784;28;20033;-83
2023/05/27 01:26:13;;;;;;;15.73;3.15;;;7.80;99.90;;;;;;5055986;28;20401;-83
2023/05/27 01:28:40;;;;;;;8.18;2.38;;;7.80;99.90;;;;;;5055089;28;20033;-83
2023/05/27 01:31:20;;;;;;;14.25;2.92;;;7.70;99.90;;;;;;5088362;28;20041;-83
2023/05/27 01:33:55;;;;;;;10.90;2.53;;;7.70;99.90;;;;;;5087813;28;20152;-83
2023/05/27 01:36:24;;;;;;;11.23;2.35;;;7.80;99.90;;;;;;5071833;28;20040;-83
2023/05/27 01:38:52;;;;;;;12.90;2.90;;;7.70;99.90;;;;;;5071597;28;20033;-83
2023/05/27 01:41:20;;;;;;;12.38;2.65;;;7.80;99.90;;;;;;5072049;28;20037;-83
2023/05/27 01:43:48;;;;;;;15.82;2.80;;;7.80;99.90;;;;;;5083686;28;20130;-83
2023/05/27 01:46:15;;;;;;;9.70;3.25;;;7.80;99.90;;;;;;5075162;28;20059;-83
2023/05/27 01:48:43;;;;;;;15.65;3.00;;;7.90;99.90;;;;;;5074927;28;20045;-83
2023/05/27 01:51:09;;;;;;;16.10;2.83;;;7.90;99.90;;;;;;5091676;28;20401;-83
2023/05/27 01:53:37;;;;;;;13.80;3.42;;;7.90;99.90;;;;;;5086253;28;20044;-83
2023/05/27 01:56:03;;;;;;;14.43;2.67;;;7.90;99.90;;;;;;5055303;28;20041;-83
2023/05/27 01:58:30;;;;;;;11.60;2.78;;;7.90;99.90;;;;;;5071487;28;20043;-83
2023/05/27 02:00:57;;;;;;;13.43;3.60;;;7.90;99.90;;;;;;5054823;28;20037;-83
2023/05/27 02:03:23;;;;;;;10.32;3.00;;;7.90;99.90;;;;;;5041428;28;20044;-83
2023/05/27 02:05:50;;;;;;;18.40;2.72;;;7.90;99.90;;;;;;5058321;28;20037;-83
2023/05/27 02:08:17;;;;;;;12.60;3.22;;;7.90;99.90;;;;;;5058398;28;20044;-83
2023/05/27 02:10:43;;;;;;;15.10;2.85;;;7.90;99.90;;;;;;5057871;28;20064;-83
2023/05/27 02:13:10;;;;;;;11.52;2.90;;;7.90;99.90;;;;;;5058315;28;20520;-83
2023/05/27 02:15:37;;;;;;;17.67;3.42;;;7.90;99.90;;;;;;5056964;28;20037;-83
2023/05/27 02:18:06;;;;;;;11.38;2.70;;;7.90;99.90;;;;;;5055204;28;20049;-83
2023/05/27 02:20:32;;;;;;;9.85;3.25;;;7.80;99.90;;;;;;5054586;28;20682;-83
2023/05/27 02:23:03;;;;;;;9.38;2.33;;;7.90;99.90;;;;;;5037961;28;20048;-83
2023/05/27 02:25:30;;;;;;;15.50;3.25;;;7.90;99.90;;;;;;5070566;28;20166;-83
2023/05/27 02:27:57;;;;;;;18.45;3.25;;;7.80;99.90;;;;;;5037544;28;20123;-83
2023/05/27 02:30:23;;;;;;;15.50;3.00;;;7.80;99.90;;;;;;5038344;28;20063;-83
2023/05/27 02:32:50;;;;;;;17.75;3.10;;;7.80;99.90;;;;;;5053991;28;20051;-83
2023/05/27 02:35:17;;;;;;;12.13;2.72;;;7.80;99.90;;;;;;5041082;28;20041;-82
2023/05/27 02:37:44;;;;;;;12.00;3.28;;;7.70;99.90;;;;;;5074040;28;20094;-83
2023/05/27 02:40:11;;;;;;;14.02;3.47;;;7.70;99.90;;;;;;5057625;28;20055;-83
2023/05/27 02:42:38;;;;;;;14.50;2.92;;;7.70;99.90;;;;;;5057476;28;20032;-83
2023/05/27 02:45:05;;;;;;;11.60;2.80;;;7.70;99.90;;;;;;5056491;28;20094;-83
2023/05/27 02:47:32;;;;;;;9.43;2.97;;;7.70;99.90;;;;;;5090632;28;20041;-83
2023/05/27 02:49:58;;;;;;;16.95;3.25;;;7.70;99.90;;;;;;5073476;28;20044;-83
2023/05/27 02:52:25;;;;;;;12.95;3.13;;;7.70;99.90;;;;;;5073453;28;20087;-83
2023/05/27 02:54:52;;;;;;;10.55;2.90;;;7.70;99.90;;;;;;5073766;28;20098;-83
2023/05/27 02:57:19;;;;;;;10.02;2.67;;;7.70;99.90;;;;;;5038334;28;20072;-83
2023/05/27 02:59:46;;;;;;;14.80;3.10;;;7.70;99.90;;;;;;5037471;28;20035;-83
2023/05/27 03:02:13;;;;;;;15.50;3.40;;;7.70;99.90;;;;;;5037880;28;20119;-83
2023/05/27 03:04:40;;;;;;;15.30;2.95;;;7.80;99.90;;;;;;5037459;28;20041;-83
2023/05/27 03:07:07;;;;;;;9.63;2.83;;;7.80;99.90;;;;;;5049739;28;20041;-83
2023/05/27 03:09:33;;;;;;;15.05;2.75;;;7.90;99.90;;;;;;5056653;28;20051;-83
2023/05/27 03:12:00;;;;;;;10.70;2.83;;;7.90;99.90;;;;;;5072750;28;20056;-83
2023/05/27 03:14:27;;;;;;;13.80;3.03;;;7.90;99.90;;;;;;5056871;28;20040;-83
2023/05/27 03:16:54;;;;;;;12.75;3.42;;;7.90;99.90;;;;;;5062360;28;20110;-83
2023/05/27 03:19:21;;;;;;;16.75;3.47;;;8.00;99.90;;;;;;5037065;28;20110;-83
2023/05/27 03:21:48;;;;;;;12.75;2.67;;;8.00;99.90;;;;;;5069468;28;20098;-83
2023/05/27 03:24:14;;;;;;;12.55;3.15;;;8.00;99.90;;;;;;5036809;28;20131;-83
2023/05/27 03:26:41;;;;;;;9.57;2.90;;;8.10;99.90;;;;;;5088910;28;20036;-83
2023/05/27 03:29:08;;;;;;;17.40;2.80;;;8.10;99.90;;;;;;5061874;28;20043;-83
2023/05/27 03:31:34;;;;;;;14.13;3.33;;;8.20;99.90;;;;;;5072045;28;20044;-83
2023/05/27 03:34:01;;;;;;;14.18;2.95;;;8.20;99.90;;;;;;5089266;28;20043;-83
2023/05/27 03:36:28;;;;;;;8.85;2.60;;;8.20;99.90;;;;;;5072371;28;20080;-83
2023/05/27 03:38:56;;;;;;;12.88;3.03;;;8.20;99.90;;;;;;5048581;28;20051;-83
2023/05/27 03:41:23;;;;;;;11.63;3.10;;;8.20;99.90;;;;;;5073067;28;20040;-83
2023/05/27 03:43:49;;;;;;;19.45;3.78;;;8.20;99.90;;;;;;5056264;28;20611;-83
2023/05/27 03:46:16;;;;;;;11.07;3.45;;;8.10;99.90;;;;;;5055866;28;20098;-83
2023/05/27 03:48:43;;;;;;;15.05;3.00;;;8.10;99.90;;;;;;5072603;28;20614;-83
2023/05/27 03:51:10;;;;;;;12.95;3.13;;;8.10;99.90;;;;;;5056272;28;20032;-83
2023/05/27 03:53:36;;;;;;;14.10;2.90;;;8.10;99.90;;;;;;5056397;28;20036;-83
2023/05/27 03:56:03;;;;;;;11.90;3.30;;;8.10;99.90;;;;;;5072352;28;20044;-83
2023/05/27 03:58:30;;;;;;;15.60;2.90;;;8.10;99.90;;;;;;5055913;28;20047;-83
2023/05/27 04:00:57;;;;;;;12.05;3.05;;;8.10;99.90;;;;;;5055800;28;20041;-83
2023/05/27 04:03:23;;;;;;;11.30;2.75;;;8.10;99.90;;;;;;5072252;28;20036;-83
2023/05/27 04:05:50;;;;;;;13.43;2.90;;;8.10;99.90;;;;;;5055848;28;20055;-83
2023/05/27 04:08:17;;;;;;;11.82;3.10;;;8.20;99.90;;;;;;5072321;28;20036;-83
2023/05/27 04:10:43;;;;;;;14.65;2.97;;;8.30;99.90;;;;;;5055985;28;20060;-83
2023/05/27 04:13:10;;;;;;;18.55;3.40;;;8.30;99.90;;;;;;5061689;28;20049;-83
2023/05/27 04:15:37;;;;;;;11.98;2.60;;;8.40;99.90;;;;;;5052583;28;20094;-83
2023/05/27 04:18:03;;;;;;;12.55;2.67;;;8.40;99.90;;;;;;5052260;28;20460;-83
2023/05/27 04:20:42;;;;;;;14.55;3.42;;;8.40;99.90;;;;;;5069005;28;20102;-83
2023/05/27 04:23:10;;;;;;;10.95;2.63;;;8.40;99.90;;;;;;5068920;28;20069;-83
2023/05/27 04:25:37;;;;;;;11.60;3.22;;;8.40;99.90;;;;;;5052881;28;20033;-83
2023/05/27 04:28:04;;;;;;;15.05;2.88;;;8.50;99.90;;;;;;5052542;28;20049;-83
2023/05/27 04:30:31;;;;;;;10.52;2.60;;;8.50;99.90;;;;;;5052706;28;20041;-83
2023/05/27 04:32:59;;;;;;;11.70;2.83;;;8.60;99.90;;;;;;5055300;28;20144;-83
2023/05/27 04:35:26;;;;;;;13.43;3.63;;;8.70;99.90;;;;;;5055942;28;20390;-83
2023/05/27 04:37:53;;;;;;;16.40;3.42;;;8.70;99.90;;;;;;5072303;28;20108;-83
2023/05/27 04:40:19;;;;;;;11.20;2.85;;;8.80;99.90;;;;;;5055770;28;20449;-83
2023/05/27 04:42:47;;;;;;;11.93;3.13;;;8.90;99.90;;;;;;5073695;28;20047;-83
2023/05/27 04:45:14;;;;;;;11.93;2.75;;;8.90;99.90;;;;;;5042012;28;20037;-83
2023/05/27 04:47:42;;;;;;;14.40;3.33;;;9.00;99.90;;;;;;5059822;28;20093;-83
2023/05/27 04:50:10;;;;;;;10.63;2.63;;;9.10;99.90;;;;;;5075992;28;20090;-83
2023/05/27 04:52:40;;;;;;;14.75;3.08;;;9.20;99.90;;;;;;5092671;28;20040;-83
2023/05/27 04:55:11;;;;;;;14.43;2.95;;;9.30;99.90;;;;;;5060745;28;20032;-83
2023/05/27 04:57:40;;;;;;;14.88;3.13;;;9.40;99.90;;;;;;5072395;28;20045;-83
2023/05/27 05:02:35;;;;;;;16.42;3.22;;;9.60;99.90;;;;;;5056027;28;20648;-83
2023/05/27 05:05:06;;;;;;;10.50;2.60;;;9.70;99.90;;;;;;5072175;28;20052;-83
2023/05/27 05:07:35;;;;;;;14.63;3.20;;;9.90;99.90;;;;;;5072499;28;20091;-83
2023/05/27 05:10:02;;;;;;;12.02;3.20;;;9.90;99.90;;;;;;5055839;28;20053;-83
2023/05/27 05:12:29;;;;;;;15.73;3.50;;;10.00;99.90;;;;;;5055800;28;20052;-83
2023/05/27 05:14:56;;;;;;;15.93;3.28;;;10.10;99.90;;;;;;5055699;28;20486;-83
2023/05/27 05:17:24;;;;;;;10.30;3.13;;;10.20;99.90;;;;;;5055332;28;20047;-83
2023/05/27 05:19:52;;;;;;;17.23;3.72;;;10.20;99.90;;;;;;5055691;28;20076;-83
2023/05/27 05:22:20;;;;;;;13.73;3.42;;;10.30;99.90;;;;;;5071721;28;20040;-83
2023/05/27 05:24:47;;;;;;;13.25;2.80;;;10.40;99.90;;;;;;5055819;28;20033;-83
2023/05/27 05:27:14;;;;;;;13.63;2.83;;;10.50;99.90;;;;;;5071560;28;20052;-84
2023/05/27 05:29:41;;;;;;;12.70;3.28;;;10.60;99.90;;;;;;5071370;28;20055;-83
2023/05/27 05:32:10;;;;;;;12.98;3.55;;;10.60;99.90;;;;;;5038791;28;20436;-83
2023/05/27 05:34:37;;;;;;;12.80;3.58;;;10.70;99.90;;;;;;5039725;28;20029;-83
2023/05/27 05:37:04;;;;;;;21.83;4.20;;;10.80;99.90;;;;;;5071441;28;20581;-83
2023/05/27 05:39:32;;;;;;;16.08;3.60;;;10.80;99.90;;;;;;5078275;28;20120;-83
2023/05/27 05:42:02;;;;;;;17.38;3.55;;;10.90;99.90;;;;;;5071987;28;20037;-83
2023/05/27 05:44:29;;;;;;;15.70;3.10;;;10.90;99.90;;;;;;5038188;28;20064;-83
2023/05/27 05:46:55;;;;;;;11.15;3.22;;;10.90;99.90;;;;;;5054867;28;20044;-83
2023/05/27 05:49:22;;;;;;;17.20;3.60;;;10.90;99.90;;;;;;5073029;28;20469;-83
2023/05/27 05:51:49;;;;;;;20.95;3.63;;;10.90;99.90;;;;;;5053005;28;20087;-83
2023/05/27 05:54:15;;;;;;;14.77;4.22;;;10.90;99.90;;;;;;5045225;28;20079;-83
2023/05/27 05:56:42;;;;;;;12.65;2.92;;;10.90;99.90;;;;;;5054625;28;20041;-83
2023/05/27 05:59:09;;;;;;;15.52;3.65;;;10.90;99.90;;;;;;5038340;28;20493;-83
2023/05/27 06:01:35;;;;;;;15.60;3.85;;;10.90;99.90;;;;;;5071696;28;20052;-83
2023/05/27 06:04:04;;;;;;;15.35;3.47;;;10.90;99.90;;;;;;5074417;28;20507;-83
2023/05/27 06:06:31;;;;;;;17.23;3.55;;;10.90;99.90;;;;;;5074731;28;20036;-83
2023/05/27 06:08:57;;;;;;;16.02;3.75;;;10.90;99.90;;;;;;5058084;28;20052;-83
2023/05/27 06:11:26;;;;;;;13.38;3.22;;;11.00;99.90;;;;;;5057410;28;20385;-83
2023/05/27 06:13:52;;;;;;;16.02;3.78;;;11.00;99.90;;;;;;5043138;28;20040;-83
2023/05/27 06:16:19;;;;;;;12.30;2.78;;;11.00;99.90;;;;;;5053919;28;20055;-83
2023/05/27 06:18:46;;;;;;;15.95;3.85;;;11.00;99.90;;;;;;5038240;28;20086;-83
2023/05/27 06:21:12;;;;;;;20.13;3.58;;;11.00;99.90;;;;;;5054396;28;20131;-83
2023/05/27 06:23:39;;;;;;;9.68;3.15;;;11.00;99.90;;;;;;5078882;28;20044;-83
2023/05/27 06:26:06;;;;;;;12.00;3.20;;;11.10;99.90;;;;;;5058144;28;20090;-83
2023/05/27 06:28:32;;;;;;;17.92;3.50;;;11.10;99.90;;;;;;5052990;28;20067;-83
2023/05/27 06:30:59;;;;;;;13.10;3.50;;;11.10;99.90;;;;;;5045308;28;20508;-83
2023/05/27 06:33:26;;;;;;;15.25;4.45;;;11.10;99.90;;;;;;5065348;28;20481;-83
2023/05/27 06:35:53;;;;;;;15.55;3.55;;;11.10;99.90;;;;;;5063379;28;20098;-83
2023/05/27 06:38:19;;;;;;;12.05;3.08;;;11.20;99.90;;;;;;5060927;28;20047;-84
2023/05/27 06:40:46;;;;;;;12.63;3.03;;;11.20;99.90;;;;;;5065433;28;20029;-83
2023/05/27 06:43:13;;;;;;;14.35;3.22;;;11.20;99.90;;;;;;5074205;28;20041;-84
2023/05/27 06:45:40;;;;;;;13.98;3.17;;;11.20;99.90;;;;;;5071432;28;20044;-83
2023/05/27 06:48:07;;;;;;;13.90;3.40;;;11.20;99.90;;;;;;5054073;28;20084;-83
2023/05/27 06:50:34;;;;;;;13.50;3.05;;;11.20;99.90;;;;;;5054932;28;20080;-83
2023/05/27 06:53:00;;;;;;;13.30;3.15;;;11.20;99.90;;;;;;5046778;28;20041;-83
2023/05/27 06:55:27;;;;;;;10.75;3.58;;;11.20;99.90;;;;;;5070044;28;20568;-84
2023/05/27 06:57:54;;;;;;;15.52;3.67;;;11.20;99.90;;;;;;5069988;28;20504;-83
2023/05/27 07:00:21;;;;;;;16.73;4.10;;;11.30;99.90;;;;;;5044173;28;20037;-83
2023/05/27 07:02:47;;;;;;;15.15;3.60;;;11.40;99.90;;;;;;5037127;28;20051;-83
2023/05/27 07:05:14;;;;;;;13.52;3.35;;;11.60;99.90;;;;;;5036328;28;20550;-84
2023/05/27 07:07:41;;;;;;;15.95;3.42;;;11.80;99.90;;;;;;5047952;28;20085;-83
2023/05/27 07:10:08;;;;;;;20.48;3.70;;;12.00;99.90;;;;;;5053494;28;20057;-84
2023/05/27 07:12:34;;;;;;;13.73;3.30;;;12.10;99.90;;;;;;5056166;28;20512;-84
2023/05/27 07:15:01;;;;;;;20.50;3.45;;;12.20;99.90;;;;;;5072952;28;20051;-84
2023/05/27 07:17:28;;;;;;;14.75;3.45;;;12.30;99.90;;;;;;5072387;28;20044;-84
2023/05/27 07:19:55;;;;;;;11.02;3.25;;;12.30;99.90;;;;;;5051133;28;20037;-84
2023/05/27 07:22:21;;;;;;;16.02;3.42;;;12.40;99.90;;;;;;5036911;28;20545;-85
2023/05/27 07:24:48;;;;;;;12.00;3.33;;;12.60;99.90;;;;;;5035982;28;20044;-85
2023/05/27 07:27:15;;;;;;;12.95;3.05;;;12.80;99.90;;;;;;5052923;28;20715;-85
2023/05/27 07:29:41;;;;;;;12.88;3.45;;;12.90;99.90;;;;;;5052509;28;20033;-85
2023/05/27 07:32:08;;;;;;;13.93;2.90;;;13.10;99.90;;;;;;5085879;28;20565;-85
2023/05/27 07:34:35;;;;;;;16.08;3.10;;;13.20;99.90;;;;;;5069127;28;20041;-85
2023/05/27 07:37:02;;;;;;;15.48;3.72;;;13.20;99.90;;;;;;5069319;28;20043;-85
2023/05/27 07:39:28;;;;;;;12.18;3.42;;;13.40;99.90;;;;;;5055851;28;20043;-84
2023/05/27 07:41:55;;;;;;;12.10;3.03;;;13.50;99.90;;;;;;5051450;28;20041;-86
2023/05/27 07:44:22;;;;;;;12.85;3.35;;;13.50;99.90;;;;;;5057377;28;20409;-85
2023/05/27 07:46:49;;;;;;;11.15;2.97;;;13.60;99.90;;;;;;5036881;28;20037;-85
2023/05/27 07:49:16;;;;;;;18.38;3.72;;;13.70;99.90;;;;;;5053474;28;20079;-85
2023/05/27 07:51:42;;;;;;;13.02;3.17;;;13.80;99.90;;;;;;5051025;28;20451;-85
2023/05/27 07:54:09;;;;;;;12.32;3.10;;;13.90;99.90;;;;;;5036685;28;20045;-85
2023/05/27 07:56:36;;;;;;;10.63;2.88;;;13.90;99.90;;;;;;5036584;28;20174;-86
2023/05/27 07:59:03;;;;;;;16.55;3.47;;;14.00;99.90;;;;;;5061314;28;20063;-86
2023/05/27 08:01:32;;;;;;;10.88;3.05;;;14.20;99.90;;;;;;5057695;28;20069;-85
2023/05/27 08:03:59;;;;;;;12.15;3.45;;;14.20;99.90;;;;;;5077907;28;20043;-85
2023/05/27 08:06:26;;;;;;;18.05;3.53;;;14.30;99.90;;;;;;5085949;28;20037;-85
2023/05/27 08:08:52;;;;;;;12.02;3.17;;;14.20;99.90;;;;;;5068740;28;20037;-85
2023/05/27 08:11:20;;;;;;;14.63;3.25;;;14.20;99.90;;;;;;5053585;28;20061;-85
2023/05/27 08:13:46;;;;;;;17.05;3.38;;;14.30;99.90;;;;;;5036073;28;20041;-85
2023/05/27 08:16:13;;;;;;;12.18;2.80;;;14.40;99.90;;;;;;5036486;28;20036;-85
2023/05/27 08:18:40;;;;;;;12.98;3.00;;;14.50;99.90;;;;;;5059264;28;20452;-85
2023/05/27 08:21:06;;;;;;;16.75;3.35;;;14.60;99.90;;;;;;5047307;28;20409;-85
2023/05/27 08:23:33;;;;;;;10.45;3.13;;;14.70;99.90;;;;;;5056567;28;20040;-85
2023/05/27 08:26:00;;;;;;;12.75;3.03;;;14.80;99.90;;;;;;5040508;28;20069;-85
2023/05/27 08:28:27;;;;;;;11.35;2.67;;;14.90;99.90;;;;;;5046876;28;20045;-85
2023/05/27 08:30:54;;;;;;;12.68;2.95;;;15.00;99.90;;;;;;5040147;28;20067;-86
2023/05/27 08:33:21;;;;;;;10.88;2.95;;;15.10;99.90;;;;;;5039958;28;20049;-85
2023/05/27 08:35:48;;;;;;;11.98;3.38;;;15.20;99.90;;;;;;5040230;28;20087;-85
2023/05/27 08:38:15;;;;;;;15.02;3.38;;;15.30;99.90;;;;;;5056617;28;20740;-86
2023/05/27 08:40:41;;;;;;;10.90;3.03;;;15.40;99.90;;;;;;5084486;28;20119;-86
2023/05/27 08:43:08;;;;;;;12.38;3.17;;;15.40;99.90;;;;;;5076075;28;20043;-86
2023/05/27 08:45:35;;;;;;;15.88;3.38;;;15.50;99.90;;;;;;5092033;28;20094;-86
2023/05/27 08:48:02;;;;;;;12.75;3.08;;;15.70;99.90;;;;;;5075656;28;20501;-85
2023/05/27 08:50:29;;;;;;;13.45;2.65;;;15.80;99.90;;;;;;5109330;28;20040;-86
2023/05/27 08:52:56;;;;;;;16.15;3.25;;;15.80;99.90;;;;;;5073918;28;20385;-86
2023/05/27 08:55:23;;;;;;;15.60;2.97;;;15.90;99.90;;;;;;5056696;28;20060;-86
2023/05/27 08:58:01;;;;;;;17.45;3.58;;;16.00;99.90;;;;;;5055651;28;20064;-85
2023/05/27 09:00:28;;;;;;;12.13;2.80;;;16.00;99.90;;;;;;5073159;28;20509;-86
2023/05/27 09:02:56;;;;;;;14.23;3.10;;;16.00;99.90;;;;;;5084337;28;20033;-86
2023/05/27 09:05:22;;;;;;;18.13;3.30;;;16.10;99.90;;;;;;5046515;28;20481;-86
2023/05/27 09:07:49;;;;;;;13.13;3.08;;;16.20;99.90;;;;;;5072278;28;20097;-86
2023/05/27 09:10:19;;;;;;;9.43;3.03;;;16.30;99.90;;;;;;5055260;28;20428;-86
2023/05/27 09:12:47;;;;;;;12.00;3.40;;;16.40;99.90;;;;;;5065668;28;20049;-86
2023/05/27 09:15:13;;;;;;;10.85;3.15;;;16.50;99.90;;;;;;5060647;28;20048;-85
2023/05/27 09:17:41;;;;;;;13.02;3.53;;;16.60;99.90;;;;;;5091876;28;20409;-85
2023/05/27 09:20:10;;;;;;;12.82;3.80;;;16.60;99.90;;;;;;5058289;28;20048;-85
2023/05/27 09:22:38;;;;;;;11.48;3.28;;;16.80;99.90;;;;;;5072450;28;20128;-85
2023/05/27 09:25:06;;;;;;;12.85;3.50;;;16.90;99.90;;;;;;5055875;28;20048;-85
2023/05/27 09:27:33;;;;;;;11.23;3.42;;;16.90;99.90;;;;;;5038854;28;20045;-85
2023/05/27 09:30:10;;;;;;;16.70;3.47;;;16.90;99.90;;;;;;5053696;28;20055;-85
2023/05/27 09:32:36;;;;;;;14.80;3.42;;;16.80;99.90;;;;;;5097718;28;20029;-85
2023/05/27 09:35:07;;;;;;;14.27;3.47;;;16.90;99.90;;;;;;5038713;28;20052;-85
2023/05/27 09:37:34;;;;;;;15.50;3.63;;;17.10;99.90;;;;;;5071544;28;20584;-84
2023/05/27 09:40:06;;;;;;;14.95;3.88;;;17.20;99.90;;;;;;5071642;28;20465;-85
2023/05/27 09:42:49;;;;;;;14.20;3.90;;;17.30;99.90;;;;;;5085318;28;20470;-85
2023/05/27 09:45:20;;;;;;;15.57;3.85;;;17.40;99.90;;;;;;5108655;28;20036;-85
2023/05/27 09:47:52;;;;;;;17.33;3.63;;;17.40;99.90;;;;;;5091152;28;20128;-85
2023/05/27 09:50:20;;;;;;;11.43;3.50;;;17.30;99.90;;;;;;5108155;28;20460;-82
2023/05/27 09:52:48;;;;;;;15.40;3.83;;;17.40;99.90;;;;;;5088884;28;20036;-83
2023/05/27 09:55:17;;;;;;;12.38;3.22;;;17.50;99.90;;;;;;5052750;28;20097;-83
2023/05/27 09:57:45;;;;;;;10.52;3.35;;;17.70;99.90;;;;;;5038237;28;20080;-85
2023/05/27 10:00:16;;;;;;;15.65;3.47;;;17.90;99.90;;;;;;5055115;28;20119;-86
2023/05/27 10:02:45;;;;;;;12.15;4.00;;;18.00;99.90;;;;;;5040187;28;20064;-85
2023/05/27 10:05:16;;;;;;;9.23;3.60;;;18.10;99.90;;;;;;5085409;28;20568;-85
2023/05/27 10:07:44;;;;;;;15.65;3.88;;;18.20;99.90;;;;;;5091146;28;20040;-85
2023/05/27 10:10:16;;;;;;;17.20;3.28;;;18.20;99.90;;;;;;5074842;28;20096;-84
2023/05/27 10:12:45;;;;;;;14.48;3.65;;;18.30;99.90;;;;;;5083169;28;20566;-85
2023/05/27 10:15:28;;;;;;;12.00;3.45;;;18.30;99.90;;;;;;5054641;28;20144;-85
2023/05/27 10:17:56;;;;;;;10.77;3.55;;;18.40;99.90;;;;;;5055301;28;20052;-85
2023/05/27 10:20:33;;;;;;;11.80;3.65;;;18.50;99.90;;;;;;5070423;28;20124;-84
2023/05/27 10:23:18;;;;;;;10.95;3.42;;;18.50;99.90;;;;;;5037781;28;20282;-85
2023/05/27 10:25:49;;;;;;;14.38;3.95;;;18.50;99.90;;;;;;5055303;28;20480;-85
2023/05/27 10:28:35;;;;;;;11.90;3.47;;;18.50;99.90;;;;;;5070713;28;20045;-85
2023/05/27 10:31:09;;;;;;;14.38;3.85;;;18.50;99.90;;;;;;5070532;28;20402;-85
2023/05/27 10:33:45;;;;;;;14.70;3.40;;;18.50;99.90;;;;;;5070773;28;20451;-85
2023/05/27 10:36:17;;;;;;;12.90;3.53;;;18.50;99.90;;;;;;5055047;28;20786;-85
2023/05/27 10:38:56;;;;;;;12.98;3.85;;;18.50;99.90;;;;;;5055682;28;20052;-85
2023/05/27 10:41:27;;;;;;;12.32;3.85;;;18.60;99.90;;;;;;5086685;28;20036;-85
2023/05/27 10:43:58;;;;;;;14.90;4.25;;;18.70;99.90;;;;;;5054506;28;20746;-84
2023/05/27 10:46:26;;;;;;;15.60;3.95;;;18.70;99.90;;;;;;5038010;28;20405;-84
2023/05/27 10:48:52;;;;;;;14.00;3.72;;;18.80;99.90;;;;;;5062341;28;20036;-85
2023/05/27 10:51:19;;;;;;;15.43;4.18;;;18.90;99.90;;;;;;5090196;28;20037;-83
2023/05/27 10:53:46;;;;;;;15.35;3.85;;;18.90;99.90;;;;;;5056284;28;20072;-83
2023/05/27 10:56:13;;;;;;;12.18;3.45;;;19.00;99.90;;;;;;5072986;28;20040;-83
2023/05/27 10:58:40;;;;;;;10.95;3.72;;;19.10;99.90;;;;;;5070589;28;20383;-81
2023/05/27 11:01:13;;;;;;;12.27;3.95;;;19.20;99.90;;;;;;5069594;28;20037;-82
2023/05/27 11:03:45;;;;;;;12.05;4.13;;;19.30;99.90;;;;;;5070371;28;20413;-82
2023/05/27 11:06:18;;;;;;;10.40;3.53;;;19.40;99.90;;;;;;5073500;28;20389;-82
2023/05/27 11:08:46;;;;;;;20.27;3.67;;;19.50;99.90;;;;;;5087235;28;20047;-81
2023/05/27 11:11:13;;;;;;;11.63;3.85;;;19.50;99.90;;;;;;5053280;28;20089;-83
2023/05/27 11:13:43;;;;;;;12.60;4.22;;;19.50;99.90;;;;;;5036846;28;20051;-81
2023/05/27 11:16:13;;;;;;;15.43;3.55;;;19.40;99.90;;;;;;5069267;28;20041;-82
2023/05/27 11:18:47;;;;;;;10.25;3.25;;;19.60;99.90;;;;;;5085613;28;20041;-82
2023/05/27 11:21:15;;;;;;;9.88;3.70;;;19.70;99.90;;;;;;5069115;28;20505;-82
2023/05/27 11:23:45;;;;;;;18.42;4.75;;;19.70;99.90;;;;;;5053166;28;20076;-82
2023/05/27 11:26:15;;;;;;;12.52;4.07;;;19.80;99.90;;;;;;5068988;28;20418;-82
2023/05/27 11:28:51;;;;;;;10.32;3.83;;;19.80;99.90;;;;;;5069264;28;20520;-82
2023/05/27 11:31:20;;;;;;;12.43;3.38;;;19.70;99.90;;;;;;5069173;28;20044;-81
2023/05/27 11:33:50;;;;;;;10.90;3.90;;;19.80;99.90;;;;;;5069006;28;20461;-82
2023/05/27 11:36:17;;;;;;;13.35;3.50;;;19.90;99.90;;;;;;5052655;28;20118;-81
2023/05/27 11:38:48;;;;;;;13.00;4.03;;;19.90;99.90;;;;;;5069016;28;20076;-81
2023/05/27 11:41:15;;;;;;;15.35;4.05;;;19.90;99.90;;;;;;5068785;28;20094;-81
2023/05/27 11:44:03;;;;;;;12.68;3.90;;;19.90;99.90;;;;;;5036502;28;20040;-81
2023/05/27 11:46:38;;;;;;;13.80;4.00;;;19.90;99.90;;;;;;5053604;28;20072;-82
2023/05/27 11:49:07;;;;;;;11.63;3.83;;;20.00;99.90;;;;;;5068423;28;20044;-81
2023/05/27 11:51:36;;;;;;;11.77;4.13;;;20.00;99.90;;;;;;5068397;28;20110;-81
2023/05/27 11:54:03;;;;;;;14.50;3.95;;;20.00;99.90;;;;;;5069163;28;20474;-81
2023/05/27 11:56:30;;;;;;;12.18;4.05;;;20.00;99.90;;;;;;5068773;28;20048;-81
2023/05/27 11:58:58;;;;;;;10.57;3.67;;;20.00;99.90;;;;;;5052652;28;20076;-81
2023/05/27 12:01:25;;;;;;;16.98;3.80;;;20.10;99.90;;;;;;5068812;28;20461;-82
2023/05/27 12:03:52;;;;;;;12.77;3.67;;;20.10;99.90;;;;;;5068192;28;20037;-81
2023/05/27 12:06:19;;;;;;;8.77;3.60;;;20.10;99.90;;;;;;5070785;28;20504;-82
2023/05/27 12:08:46;;;;;;;11.45;3.70;;;20.20;99.90;;;;;;5036512;28;20041;-82
2023/05/27 12:11:13;;;;;;;11.80;3.75;;;20.30;99.90;;;;;;5035447;28;20057;-82
2023/05/27 12:13:39;;;;;;;13.63;3.95;;;20.20;99.90;;;;;;5035822;28;20052;-82
2023/05/27 12:16:06;;;;;;;15.15;4.55;;;20.30;99.90;;;;;;5035847;28;20127;-82
2023/05/27 12:18:36;;;;;;;14.95;4.00;;;20.30;99.90;;;;;;5070656;28;20041;-82
2023/05/27 12:21:03;;;;;;;12.48;3.47;;;20.40;99.90;;;;;;5055293;28;20040;-82
2023/05/27 12:23:30;;;;;;;19.30;3.80;;;20.50;99.90;;;;;;5072303;28;20040;-82
2023/05/27 12:25:56;;;;;;;13.77;3.58;;;20.60;99.90;;;;;;5055686;28;20062;-82
2023/05/27 12:28:23;;;;;;;10.90;3.70;;;20.70;99.90;;;;;;5040628;28;20045;-82
2023/05/27 12:30:50;;;;;;;11.05;3.70;;;20.50;99.90;;;;;;5052851;28;20124;-82
2023/05/27 12:33:17;;;;;;;12.10;3.72;;;20.60;99.90;;;;;;5071572;28;20485;-82
2023/05/27 12:35:44;;;;;;;12.40;4.07;;;20.70;99.90;;;;;;5088544;28;20554;-82
2023/05/27 12:38:10;;;;;;;9.98;3.60;;;20.70;99.90;;;;;;5088219;28;20033;-82
2023/05/27 12:40:37;;;;;;;10.48;3.88;;;20.70;99.90;;;;;;5088033;28;20040;-82
2023/05/27 12:43:04;;;;;;;12.70;3.90;;;20.60;99.90;;;;;;5038680;28;20099;-82
2023/05/27 12:45:31;;;;;;;12.70;3.83;;;20.60;99.90;;;;;;5035432;28;20107;-82
2023/05/27 12:47:58;;;;;;;11.32;3.95;;;20.70;99.90;;;;;;5035208;28;20044;-81